Time;durP1;ratioP1;P1;durP2;ratioP2;P2;SDS_P1;SDS_P2;PMS_P1;PMS_P2;Temp;Humidity;BMP_temperature;BMP_pressure;BME280_temperature;BME280_humidity;BME280_pressure;Samples;Min_cycle;Max_cycle;Signal;HPM_P1;HPM_P2
2022/04/06 00:00:31;;;;;;;21.38;14.48;;;8.40;99.90;;;;;;5018027;28;20036;-73
2022/04/06 00:02:58;;;;;;;18.52;13.57;;;8.40;99.90;;;;;;5015789;28;20555;-73
2022/04/06 00:05:23;;;;;;;17.45;12.27;;;8.60;99.90;;;;;;5015683;28;20483;-71
2022/04/06 00:07:49;;;;;;;14.63;10.75;;;8.60;99.90;;;;;;5016256;28;20037;-74
2022/04/06 00:10:15;;;;;;;15.38;9.95;;;8.60;99.90;;;;;;5015605;28;20641;-72
2022/04/06 00:12:41;;;;;;;14.13;9.70;;;8.70;99.90;;;;;;5015781;28;20084;-73
2022/04/06 00:15:10;;;;;;;16.05;8.65;;;8.80;99.90;;;;;;5015699;28;20105;-73
2022/04/06 00:17:37;;;;;;;11.32;8.77;;;8.90;99.90;;;;;;5015572;28;20024;-73
2022/04/06 00:20:04;;;;;;;13.65;8.60;;;9.00;99.90;;;;;;5015373;28;20117;-73
2022/04/06 00:22:30;;;;;;;11.43;7.93;;;9.00;99.90;;;;;;5016137;28;20117;-73
2022/04/06 00:24:56;;;;;;;12.75;8.50;;;9.10;99.90;;;;;;5004563;28;20065;-72
2022/04/06 00:27:22;;;;;;;13.55;8.30;;;9.10;99.90;;;;;;5015515;28;20033;-72
2022/04/06 00:29:48;;;;;;;11.63;8.13;;;9.10;99.90;;;;;;5015563;28;20383;-72
2022/04/06 00:32:13;;;;;;;12.95;9.25;;;9.10;99.90;;;;;;5015140;28;20029;-72
2022/04/06 00:37:23;;;;;;;11.23;7.53;;;9.20;99.90;;;;;;5015163;28;20033;-72
2022/04/06 00:39:48;;;;;;;11.98;7.35;;;9.20;99.90;;;;;;5014773;28;20030;-72
2022/04/06 00:42:14;;;;;;;13.00;7.93;;;9.20;99.90;;;;;;5014840;28;20395;-72
2022/04/06 00:44:39;;;;;;;10.38;7.05;;;9.20;99.90;;;;;;5014881;28;20041;-72
2022/04/06 00:47:06;;;;;;;11.70;7.80;;;9.30;99.90;;;;;;5014858;28;20471;-72
2022/04/06 00:49:32;;;;;;;13.00;7.55;;;9.30;99.90;;;;;;5014646;28;20037;-72
2022/04/06 00:52:01;;;;;;;11.05;7.43;;;9.30;99.90;;;;;;4996952;28;20540;-72
2022/04/06 00:54:28;;;;;;;11.90;7.50;;;9.30;99.90;;;;;;5014518;28;20033;-72
2022/04/06 00:56:54;;;;;;;12.27;7.80;;;9.30;99.90;;;;;;5014323;28;20535;-72
2022/04/06 00:59:20;;;;;;;10.85;7.60;;;9.30;99.90;;;;;;5014389;28;20219;-72
2022/04/06 01:01:47;;;;;;;12.65;7.53;;;9.30;99.90;;;;;;5014414;28;20113;-72
2022/04/06 01:04:13;;;;;;;12.73;7.63;;;9.30;99.90;;;;;;5014328;28;20088;-72
2022/04/06 01:06:39;;;;;;;11.85;7.68;;;9.20;99.90;;;;;;5014238;28;20582;-72
2022/04/06 01:09:05;;;;;;;10.85;7.38;;;9.30;99.90;;;;;;5014186;28;20094;-72
2022/04/06 01:11:31;;;;;;;11.73;8.45;;;9.30;99.90;;;;;;5014451;28;20105;-72
2022/04/06 01:13:57;;;;;;;13.75;7.57;;;9.30;99.90;;;;;;5014295;28;20022;-78
2022/04/06 01:16:23;;;;;;;10.05;7.63;;;9.20;99.90;;;;;;5014217;28;20026;-73
2022/04/06 01:18:49;;;;;;;11.18;7.63;;;9.30;99.90;;;;;;5012490;28;20483;-73
2022/04/06 01:21:15;;;;;;;9.95;7.07;;;9.30;99.90;;;;;;4994014;28;20595;-73
2022/04/06 01:23:44;;;;;;;11.13;6.97;;;9.30;99.90;;;;;;4994548;28;20068;-73
2022/04/06 01:26:11;;;;;;;10.07;6.75;;;9.30;99.90;;;;;;4976624;28;20035;-74
2022/04/06 01:28:37;;;;;;;9.45;6.60;;;9.30;99.90;;;;;;4994239;28;20054;-73
2022/04/06 01:31:04;;;;;;;11.15;6.95;;;9.30;99.90;;;;;;4994112;28;20470;-73
2022/04/06 01:33:30;;;;;;;10.70;6.47;;;9.30;99.90;;;;;;4993920;28;20032;-73
2022/04/06 01:35:56;;;;;;;9.98;6.18;;;9.30;99.90;;;;;;4994336;28;20116;-73
2022/04/06 01:38:22;;;;;;;9.48;6.25;;;9.30;99.90;;;;;;4994660;28;20026;-73
2022/04/06 01:40:48;;;;;;;11.23;6.93;;;9.30;99.90;;;;;;4994384;28;20061;-73
2022/04/06 01:43:13;;;;;;;9.10;5.80;;;9.30;99.90;;;;;;4993832;28;20062;-73
2022/04/06 01:45:39;;;;;;;9.90;5.97;;;9.30;99.90;;;;;;4993893;28;20041;-73
2022/04/06 01:48:05;;;;;;;9.77;5.53;;;9.40;99.90;;;;;;4993947;28;20471;-74
2022/04/06 01:53:14;;;;;;;11.13;6.45;;;9.40;99.90;;;;;;4994088;28;20438;-72
2022/04/06 01:55:40;;;;;;;10.18;5.65;;;9.30;99.90;;;;;;4976191;28;20030;-72
2022/04/06 01:58:07;;;;;;;8.45;5.65;;;9.30;99.90;;;;;;4976605;28;20026;-72
2022/04/06 02:00:33;;;;;;;8.45;5.50;;;9.30;99.90;;;;;;4993958;28;20073;-72
2022/04/06 02:03:00;;;;;;;7.40;4.78;;;9.30;99.90;;;;;;4994153;28;20466;-72
2022/04/06 02:05:31;;;;;;;7.05;4.72;;;9.40;99.90;;;;;;4999399;28;20042;-74
2022/04/06 02:07:56;;;;;;;8.80;5.05;;;9.40;99.90;;;;;;5019005;28;20019;-74
2022/04/06 02:10:22;;;;;;;7.85;5.30;;;9.30;99.90;;;;;;5017339;28;20045;-74
2022/04/06 02:12:48;;;;;;;9.95;4.90;;;9.40;99.90;;;;;;5015780;28;20090;-75
2022/04/06 02:15:14;;;;;;;8.02;4.43;;;9.40;99.90;;;;;;5014098;28;20033;-74
2022/04/06 02:17:40;;;;;;;11.05;4.90;;;9.40;99.90;;;;;;5014679;28;20053;-74
2022/04/06 02:20:06;;;;;;;7.47;4.75;;;9.40;99.90;;;;;;5009984;28;20026;-74
2022/04/06 02:22:32;;;;;;;7.13;4.55;;;9.40;99.90;;;;;;5007597;28;20070;-73
2022/04/06 02:24:57;;;;;;;8.88;4.82;;;9.40;99.90;;;;;;5012095;28;20034;-73
2022/04/06 02:27:23;;;;;;;8.45;4.53;;;9.40;99.90;;;;;;5003846;28;20034;-74
2022/04/06 02:29:48;;;;;;;8.75;4.63;;;9.30;99.90;;;;;;4993566;28;20026;-74
2022/04/06 02:32:14;;;;;;;11.88;4.95;;;9.30;99.90;;;;;;4993507;28;20018;-74
2022/04/06 02:34:40;;;;;;;12.43;5.22;;;9.40;99.90;;;;;;5003257;23;20062;-78
2022/04/06 02:37:07;;;;;;;13.68;5.43;;;9.30;99.90;;;;;;5004142;28;20023;-78
2022/04/06 02:39:33;;;;;;;12.13;5.63;;;9.30;99.90;;;;;;5008084;28;20054;-77
2022/04/06 02:41:59;;;;;;;9.57;4.60;;;9.40;99.90;;;;;;4997586;28;20030;-76
2022/04/06 02:44:24;;;;;;;10.77;4.82;;;9.40;99.90;;;;;;5003040;28;20018;-78
2022/04/06 02:46:50;;;;;;;12.60;4.80;;;9.40;99.90;;;;;;4991954;28;20034;-79
2022/04/06 02:49:17;;;;;;;11.98;5.55;;;9.40;99.90;;;;;;5006487;28;20034;-79
2022/04/06 02:51:43;;;;;;;15.13;5.95;;;9.40;99.90;;;;;;5004848;28;20064;-79
2022/04/06 02:54:08;;;;;;;14.90;6.72;;;9.30;99.90;;;;;;4985519;28;20026;-78
2022/04/06 02:56:34;;;;;;;11.27;5.78;;;9.40;99.90;;;;;;4982218;28;20114;-77
2022/04/06 02:59:01;;;;;;;15.18;6.55;;;9.30;99.90;;;;;;5011919;28;20117;-81
2022/04/06 03:01:27;;;;;;;13.70;7.00;;;9.30;99.90;;;;;;5009033;28;20025;-78
2022/04/06 03:03:52;;;;;;;18.13;7.80;;;9.30;99.90;;;;;;5011260;28;20018;-77
2022/04/06 03:06:18;;;;;;;21.02;8.65;;;9.30;99.90;;;;;;5009469;28;20072;-78
2022/04/06 03:08:44;;;;;;;14.88;8.27;;;9.30;99.90;;;;;;5009785;28;20018;-77
2022/04/06 03:11:10;;;;;;;15.45;8.85;;;9.30;99.90;;;;;;5005893;28;20032;-77
2022/04/06 03:13:36;;;;;;;18.25;9.52;;;9.30;99.90;;;;;;4996879;28;20033;-77
2022/04/06 03:16:02;;;;;;;24.30;9.88;;;9.30;99.90;;;;;;5003308;28;20015;-79
2022/04/06 03:18:27;;;;;;;17.70;9.93;;;9.30;99.90;;;;;;4997906;28;20023;-77
2022/04/06 03:20:53;;;;;;;20.83;10.20;;;9.30;99.90;;;;;;4982554;28;20487;-78
2022/04/06 03:23:19;;;;;;;20.55;10.15;;;9.30;99.90;;;;;;4993921;28;20026;-77
2022/04/06 03:25:44;;;;;;;21.80;11.18;;;9.30;99.90;;;;;;4999762;28;20029;-79
2022/04/06 03:28:10;;;;;;;20.30;10.55;;;9.30;99.90;;;;;;4989235;28;20038;-79
2022/04/06 03:30:36;;;;;;;16.77;10.10;;;9.30;99.90;;;;;;4993901;28;20129;-78
2022/04/06 03:33:02;;;;;;;18.23;11.10;;;9.40;99.90;;;;;;5006356;28;20278;-79
2022/04/06 03:35:29;;;;;;;18.98;11.45;;;9.30;99.90;;;;;;4987875;28;20058;-79
2022/04/06 03:37:54;;;;;;;23.92;12.35;;;9.40;99.90;;;;;;5003916;28;20093;-80
2022/04/06 03:40:20;;;;;;;30.23;11.88;;;9.40;99.90;;;;;;4998137;28;20089;-78
2022/04/06 03:42:46;;;;;;;26.05;11.23;;;9.30;99.90;;;;;;5010852;28;20041;-79
2022/04/06 03:45:11;;;;;;;29.92;12.25;;;9.40;99.90;;;;;;5005699;28;20082;-78
2022/04/06 03:47:38;;;;;;;30.45;12.18;;;9.40;99.90;;;;;;5009511;28;20034;-79
2022/04/06 03:50:07;;;;;;;25.05;12.00;;;9.30;99.90;;;;;;5005468;28;20510;-80
2022/04/06 03:52:33;;;;;;;30.67;13.48;;;9.40;99.90;;;;;;5006051;28;20027;-80
2022/04/06 03:54:59;;;;;;;32.08;12.05;;;9.40;99.90;;;;;;5015638;28;20030;-80
2022/04/06 03:57:25;;;;;;;29.33;13.23;;;9.40;99.90;;;;;;4987786;28;20029;-79
2022/04/06 03:59:51;;;;;;;28.95;13.25;;;9.40;99.90;;;;;;5006376;28;20517;-79
2022/04/06 04:02:17;;;;;;;33.15;13.55;;;9.40;99.90;;;;;;4988602;28;20049;-79
2022/04/06 04:04:42;;;;;;;40.30;13.70;;;9.50;99.90;;;;;;5005500;28;20081;-80
2022/04/06 04:07:08;;;;;;;32.55;14.05;;;9.50;99.90;;;;;;5006211;28;20034;-80
2022/04/06 04:09:35;;;;;;;37.97;15.15;;;9.50;99.90;;;;;;4989801;28;20033;-80
2022/04/06 04:12:02;;;;;;;38.30;15.00;;;9.50;99.90;;;;;;4988760;28;20033;-80
2022/04/06 04:14:31;;;;;;;41.03;15.85;;;9.40;99.90;;;;;;5005640;28;20038;-80
2022/04/06 04:16:58;;;;;;;46.60;16.55;;;9.50;99.90;;;;;;5003463;28;20111;-80
2022/04/06 04:19:23;;;;;;;35.78;16.90;;;9.50;99.90;;;;;;5004856;28;20062;-80
2022/04/06 04:21:49;;;;;;;36.42;19.02;;;9.50;99.90;;;;;;4988357;28;20022;-80
2022/04/06 04:24:14;;;;;;;41.92;18.23;;;9.50;99.90;;;;;;5007571;28;20022;-79
2022/04/06 04:26:40;;;;;;;38.83;19.02;;;9.50;99.90;;;;;;5005644;28;20027;-80
2022/04/06 04:29:07;;;;;;;42.45;19.88;;;9.50;99.90;;;;;;5004710;28;20510;-80
2022/04/06 04:31:33;;;;;;;41.47;20.35;;;9.50;99.90;;;;;;5002223;28;20027;-79
2022/04/06 04:33:59;;;;;;;42.22;20.10;;;9.50;99.90;;;;;;5006489;28;20688;-79
2022/04/06 04:36:25;;;;;;;45.28;21.35;;;9.40;99.90;;;;;;5007080;28;20082;-79
2022/04/06 04:38:50;;;;;;;48.97;23.75;;;9.50;99.90;;;;;;4991705;28;20037;-80
2022/04/06 04:41:17;;;;;;;52.47;24.50;;;9.50;99.90;;;;;;5007056;28;20042;-79
2022/04/06 04:43:42;;;;;;;48.40;24.27;;;9.50;99.90;;;;;;5010979;28;20034;-78
2022/04/06 04:46:09;;;;;;;51.42;25.63;;;9.60;99.90;;;;;;5012811;28;20049;-81
2022/04/06 04:48:34;;;;;;;51.58;25.17;;;9.50;99.90;;;;;;5007285;28;20521;-79
2022/04/06 04:51:00;;;;;;;58.10;30.25;;;9.50;99.90;;;;;;5002043;28;20030;-78
2022/04/06 04:53:26;;;;;;;59.50;27.98;;;9.60;99.90;;;;;;4999194;28;20030;-77
2022/04/06 04:55:53;;;;;;;64.30;30.63;;;9.50;99.90;;;;;;5002168;28;20017;-78
2022/04/06 04:58:21;;;;;;;57.83;28.42;;;9.50;99.90;;;;;;5012892;28;20394;-78
2022/04/06 05:00:47;;;;;;;56.83;30.00;;;9.50;99.90;;;;;;5010159;28;20027;-80
2022/04/06 05:03:13;;;;;;;70.07;30.48;;;9.60;99.90;;;;;;4987916;28;20088;-79
2022/04/06 05:05:42;;;;;;;66.32;31.60;;;9.50;99.90;;;;;;5006344;28;20034;-80
2022/04/06 05:08:08;;;;;;;64.50;32.13;;;9.50;99.90;;;;;;4987974;28;20023;-81
2022/04/06 05:10:33;;;;;;;74.53;32.63;;;9.50;99.90;;;;;;5004458;28;20046;-81
2022/04/06 05:12:59;;;;;;;64.22;32.25;;;9.50;99.90;;;;;;4988508;28;20467;-80
2022/04/06 05:15:24;;;;;;;73.40;32.85;;;9.50;99.90;;;;;;5006289;28;20022;-79
2022/04/06 05:17:50;;;;;;;68.60;32.22;;;9.60;99.90;;;;;;5004458;28;20042;-77
2022/04/06 05:20:15;;;;;;;65.93;31.95;;;9.60;99.90;;;;;;4988040;28;20034;-82
2022/04/06 05:22:41;;;;;;;62.85;32.78;;;9.60;99.90;;;;;;4989482;28;20054;-79
2022/04/06 05:25:08;;;;;;;78.80;34.67;;;9.60;99.90;;;;;;5010877;28;20030;-78
2022/04/06 05:27:54;;;;;;;65.85;32.10;;;9.70;99.90;;;;;;5009965;28;20026;-79
2022/04/06 05:30:24;;;;;;;71.18;32.40;;;9.70;99.90;;;;;;4991386;28;20022;-80
2022/04/06 05:32:52;;;;;;;73.60;31.88;;;9.70;99.90;;;;;;4988864;28;20113;-78
2022/04/06 05:35:18;;;;;;;72.55;32.55;;;9.70;99.90;;;;;;5007320;28;20034;-77
2022/04/06 05:37:44;;;;;;;68.25;33.17;;;9.70;99.90;;;;;;5009292;28;20022;-78
2022/04/06 05:40:12;;;;;;;75.82;31.08;;;9.70;99.90;;;;;;5014260;28;20029;-78
2022/04/06 05:42:38;;;;;;;63.55;29.85;;;9.80;99.90;;;;;;4998089;28;20026;-79
2022/04/06 05:45:06;;;;;;;71.05;30.23;;;9.80;99.90;;;;;;4999147;28;20038;-81
2022/04/06 05:47:32;;;;;;;66.20;29.27;;;9.80;99.90;;;;;;4990086;28;20118;-80
2022/04/06 05:49:58;;;;;;;58.17;27.92;;;9.80;99.90;;;;;;4989947;28;20035;-81
2022/04/06 05:52:23;;;;;;;52.38;25.55;;;9.80;99.90;;;;;;4992111;28;20029;-80
2022/04/06 05:54:49;;;;;;;58.10;25.65;;;9.80;99.90;;;;;;5011841;28;20030;-82
2022/04/06 05:57:14;;;;;;;67.13;25.10;;;9.80;99.90;;;;;;5011502;28;20387;-79
2022/04/06 05:59:40;;;;;;;65.60;26.58;;;9.80;99.90;;;;;;4992628;28;20049;-81
2022/04/06 06:02:07;;;;;;;58.33;23.65;;;9.90;99.90;;;;;;5004598;28;20026;-81
2022/04/06 06:04:33;;;;;;;59.88;23.13;;;9.90;99.90;;;;;;5007427;28;20073;-80
2022/04/06 06:06:59;;;;;;;61.58;24.25;;;9.90;99.90;;;;;;4989866;28;20038;-79
2022/04/06 06:09:25;;;;;;;51.70;22.95;;;10.00;99.90;;;;;;5008113;28;20037;-78
2022/04/06 06:11:50;;;;;;;57.72;22.73;;;9.90;99.90;;;;;;5008146;28;20026;-78
2022/04/06 06:14:16;;;;;;;56.53;22.45;;;9.90;99.90;;;;;;4992703;28;20018;-79
2022/04/06 06:16:41;;;;;;;49.22;21.25;;;9.90;99.90;;;;;;4995440;28;20081;-79
2022/04/06 06:19:07;;;;;;;52.40;20.17;;;9.90;99.90;;;;;;5012676;28;20030;-77
2022/04/06 06:21:32;;;;;;;55.33;20.65;;;9.90;99.90;;;;;;5011001;28;20155;-80
2022/04/06 06:24:05;;;;;;;56.78;20.85;;;9.90;99.90;;;;;;5011621;28;20355;-77
2022/04/06 06:26:31;;;;;;;43.15;19.30;;;10.00;99.90;;;;;;5010365;28;20031;-77
2022/04/06 06:28:57;;;;;;;48.22;19.10;;;10.00;99.90;;;;;;5002240;28;20033;-78
2022/04/06 06:31:22;;;;;;;45.65;18.58;;;10.10;99.90;;;;;;5003105;28;20042;-80
2022/04/06 06:33:48;;;;;;;50.20;18.63;;;10.10;99.90;;;;;;5002579;28;20034;-74
2022/04/06 06:36:14;;;;;;;45.45;19.40;;;10.10;99.90;;;;;;4999051;28;20025;-76
2022/04/06 06:38:39;;;;;;;50.20;18.95;;;10.10;99.90;;;;;;4996522;28;20026;-76
2022/04/06 06:41:05;;;;;;;39.53;17.42;;;10.10;99.90;;;;;;5000264;28;20026;-77
2022/04/06 06:43:30;;;;;;;52.60;17.88;;;10.10;99.90;;;;;;4998580;28;20068;-78
2022/04/06 06:45:56;;;;;;;48.97;19.50;;;10.10;99.90;;;;;;4998061;28;20514;-76
2022/04/06 06:48:21;;;;;;;43.97;17.55;;;10.10;99.90;;;;;;4982928;28;20034;-78
2022/04/06 06:50:47;;;;;;;52.58;18.02;;;10.20;99.90;;;;;;5002426;28;20038;-79
2022/04/06 06:53:12;;;;;;;54.38;17.75;;;10.20;99.90;;;;;;5000734;28;20018;-80
2022/04/06 06:55:38;;;;;;;45.42;16.55;;;10.30;99.90;;;;;;5001289;28;20030;-79
2022/04/06 06:58:04;;;;;;;46.05;17.90;;;10.30;99.90;;;;;;5005236;28;20030;-78
2022/04/06 07:00:31;;;;;;;37.75;17.10;;;10.40;99.90;;;;;;5004281;28;20046;-83
2022/04/06 07:02:56;;;;;;;43.67;16.85;;;10.30;99.90;;;;;;4987611;28;20104;-79
2022/04/06 07:05:22;;;;;;;48.72;18.05;;;10.50;99.90;;;;;;4983768;28;20022;-83
2022/04/06 07:07:49;;;;;;;52.83;17.10;;;10.60;99.90;;;;;;5006835;28;20423;-79
2022/04/06 07:10:16;;;;;;;51.10;17.08;;;10.60;99.90;;;;;;4989792;28;20498;-79
2022/04/06 07:12:42;;;;;;;48.53;17.35;;;10.60;99.90;;;;;;4981951;28;20022;-79
2022/04/06 07:15:07;;;;;;;44.78;17.50;;;10.60;99.90;;;;;;4999617;28;20073;-80
2022/04/06 07:17:33;;;;;;;43.58;18.10;;;10.60;99.90;;;;;;4999349;28;20049;-80
2022/04/06 07:19:59;;;;;;;50.83;18.65;;;10.60;99.90;;;;;;4999598;28;20034;-79
2022/04/06 07:22:24;;;;;;;45.15;19.08;;;10.60;99.90;;;;;;4998992;28;20077;-77
2022/04/06 07:24:50;;;;;;;48.28;19.20;;;10.60;99.90;;;;;;4997764;28;20073;-77
2022/04/06 07:27:16;;;;;;;49.15;19.02;;;10.50;99.90;;;;;;4997459;28;20030;-79
2022/04/06 07:29:43;;;;;;;50.08;19.35;;;10.60;99.90;;;;;;5000541;28;20046;-79
2022/04/06 07:32:09;;;;;;;49.72;19.80;;;10.60;99.90;;;;;;5000404;28;20078;-80
2022/04/06 07:34:35;;;;;;;50.75;19.30;;;10.60;99.90;;;;;;4999030;28;20049;-80
2022/04/06 07:37:00;;;;;;;45.95;19.40;;;10.50;99.90;;;;;;4998882;28;20019;-77
2022/04/06 07:39:27;;;;;;;53.78;21.77;;;10.50;99.90;;;;;;4998459;28;20023;-77
2022/04/06 07:41:56;;;;;;;55.03;20.90;;;10.60;99.90;;;;;;4999511;28;20034;-77
2022/04/06 07:44:25;;;;;;;44.75;20.58;;;10.60;99.90;;;;;;4998917;28;20022;-78
2022/04/06 07:46:51;;;;;;;51.53;21.67;;;10.60;99.90;;;;;;5000881;28;20082;-76
2022/04/06 07:49:17;;;;;;;48.05;19.25;;;10.60;99.90;;;;;;5010460;28;20034;-80
2022/04/06 07:51:43;;;;;;;49.67;20.38;;;10.60;99.90;;;;;;4991476;28;20029;-77
2022/04/06 07:54:09;;;;;;;53.95;22.55;;;10.60;99.90;;;;;;5015383;28;20039;-76
2022/04/06 07:56:36;;;;;;;45.38;20.85;;;10.60;99.90;;;;;;5017070;28;20025;-75
2022/04/06 07:59:02;;;;;;;44.42;19.27;;;10.60;99.90;;;;;;5017324;28;20079;-76
2022/04/06 08:01:28;;;;;;;46.83;19.63;;;10.60;99.90;;;;;;5015901;28;20022;-76
2022/04/06 08:03:53;;;;;;;42.63;19.10;;;10.60;99.90;;;;;;5014948;28;20050;-77
2022/04/06 08:06:19;;;;;;;40.25;19.52;;;10.60;99.90;;;;;;5014693;28;20038;-76
2022/04/06 08:08:45;;;;;;;53.65;26.33;;;10.60;99.90;;;;;;5011520;28;20018;-78
2022/04/06 08:11:10;;;;;;;47.65;24.35;;;10.60;99.90;;;;;;4993755;28;20031;-78
2022/04/06 08:13:36;;;;;;;62.65;30.80;;;10.70;99.90;;;;;;5011250;28;20050;-79
2022/04/06 08:16:01;;;;;;;52.92;20.13;;;10.70;99.90;;;;;;5016224;28;20011;-78
2022/04/06 08:18:28;;;;;;;41.00;19.17;;;10.80;99.90;;;;;;5016876;28;20050;-75
2022/04/06 08:20:54;;;;;;;47.85;19.00;;;10.70;99.90;;;;;;5016473;28;20073;-78
2022/04/06 08:23:20;;;;;;;45.63;19.90;;;10.80;99.90;;;;;;5016358;28;20041;-77
2022/04/06 08:25:46;;;;;;;36.03;17.10;;;10.80;99.90;;;;;;5020308;28;20018;-76
2022/04/06 08:28:12;;;;;;;46.90;18.63;;;10.80;99.90;;;;;;5003717;28;20045;-75
2022/04/06 08:30:42;;;;;;;37.47;18.42;;;10.80;99.90;;;;;;5020353;28;20054;-77
2022/04/06 08:33:10;;;;;;;37.53;16.40;;;10.80;99.90;;;;;;5020480;28;20022;-74
2022/04/06 08:35:36;;;;;;;34.78;16.23;;;10.80;99.90;;;;;;4970745;23;1041766;-76
2022/04/06 08:38:03;;;;;;;42.58;17.88;;;10.80;99.90;;;;;;5000176;28;20026;-73
2022/04/06 08:40:30;;;;;;;49.90;17.90;;;10.70;99.90;;;;;;4997069;28;20030;-74
2022/04/06 08:42:57;;;;;;;37.65;15.95;;;10.80;99.90;;;;;;4996133;28;20391;-74
2022/04/06 08:45:22;;;;;;;38.22;16.85;;;10.80;99.90;;;;;;4996072;28;20052;-74
2022/04/06 08:47:49;;;;;;;38.67;15.50;;;10.80;99.90;;;;;;4996268;28;20018;-73
2022/04/06 08:50:18;;;;;;;32.50;16.13;;;10.90;99.90;;;;;;4995693;28;20050;-73
2022/04/06 08:52:44;;;;;;;40.45;16.00;;;10.80;99.90;;;;;;4997324;28;20022;-76
2022/04/06 08:55:12;;;;;;;35.15;14.45;;;10.80;99.90;;;;;;4996158;28;20126;-73
2022/04/06 08:57:39;;;;;;;45.55;15.00;;;10.90;99.90;;;;;;4981714;28;20102;-74
2022/04/06 09:00:05;;;;;;;39.42;14.18;;;10.90;99.90;;;;;;5000911;28;20044;-74
2022/04/06 09:02:31;;;;;;;40.03;13.70;;;11.00;99.90;;;;;;4986792;28;20533;-73
2022/04/06 09:04:57;;;;;;;37.78;14.75;;;10.90;99.90;;;;;;4996524;28;20034;-72
2022/04/06 09:07:24;;;;;;;37.72;13.65;;;10.90;99.90;;;;;;4996767;28;20069;-74
2022/04/06 09:09:51;;;;;;;39.58;14.63;;;10.90;99.90;;;;;;4981916;28;20045;-74
2022/04/06 09:12:19;;;;;;;41.33;14.50;;;10.90;99.90;;;;;;4985931;28;20037;-74
2022/04/06 09:14:45;;;;;;;27.42;12.07;;;11.00;99.90;;;;;;5001607;28;20026;-73
2022/04/06 09:17:10;;;;;;;32.45;12.93;;;10.90;99.90;;;;;;4983594;28;20102;-73
2022/04/06 09:19:37;;;;;;;49.20;20.70;;;10.80;99.90;;;;;;4998275;28;20181;-75
2022/04/06 09:22:07;;;;;;;62.25;30.17;;;10.80;99.90;;;;;;4984099;28;20055;-72
2022/04/06 09:24:33;;;;;;;32.85;12.82;;;10.70;99.90;;;;;;5003865;28;20094;-73
2022/04/06 09:27:00;;;;;;;35.25;12.70;;;10.70;99.90;;;;;;5006294;28;20027;-74
2022/04/06 09:29:26;;;;;;;36.53;13.50;;;10.70;99.90;;;;;;5006953;28;20023;-73
2022/04/06 09:31:52;;;;;;;33.72;13.23;;;10.60;99.90;;;;;;4985550;28;20023;-75
2022/04/06 09:34:22;;;;;;;34.10;12.77;;;10.60;99.90;;;;;;4996327;28;20499;-73
2022/04/06 09:36:50;;;;;;;30.50;12.13;;;10.60;99.90;;;;;;5000603;28;20042;-74
2022/04/06 09:39:16;;;;;;;33.65;12.05;;;10.60;99.90;;;;;;5000697;28;20026;-74
2022/04/06 09:41:59;;;;;;;29.05;11.73;;;10.60;99.90;;;;;;4995058;28;20033;-75
2022/04/06 09:50:12;;;;;;;30.85;12.75;;;10.50;99.90;;;;;;4999795;28;20357;-74
2022/04/06 09:52:43;;;;;;;30.00;11.90;;;10.50;99.90;;;;;;5002466;28;20021;-74
2022/04/06 09:55:14;;;;;;;27.20;13.27;;;10.50;99.90;;;;;;4996023;28;20046;-73
2022/04/06 09:57:41;;;;;;;29.23;12.38;;;10.50;99.90;;;;;;4978434;28;20388;-75
2022/04/06 10:00:09;;;;;;;33.92;13.05;;;10.50;99.90;;;;;;4994868;28;20022;-73
2022/04/06 10:02:36;;;;;;;29.52;11.25;;;10.50;99.90;;;;;;4976833;28;20107;-73
2022/04/06 10:05:03;;;;;;;30.45;10.88;;;10.50;99.90;;;;;;4993951;28;20118;-74
2022/04/06 10:07:29;;;;;;;24.90;10.52;;;10.50;99.90;;;;;;4993424;28;20022;-73
2022/04/06 10:09:56;;;;;;;20.45;9.38;;;10.50;99.90;;;;;;4993871;28;20041;-72
2022/04/06 10:12:23;;;;;;;25.15;10.40;;;10.50;99.90;;;;;;4998098;28;20463;-73
2022/04/06 10:14:50;;;;;;;23.92;9.13;;;10.50;99.90;;;;;;4993905;28;20037;-74
2022/04/06 10:17:17;;;;;;;16.52;8.05;;;10.50;99.90;;;;;;4993692;28;20081;-74
2022/04/06 10:19:48;;;;;;;20.67;8.05;;;10.50;99.90;;;;;;4993493;28;20030;-74
2022/04/06 10:22:24;;;;;;;23.73;8.48;;;10.50;99.90;;;;;;4976238;28;20022;-72
2022/04/06 10:25:05;;;;;;;23.92;9.18;;;10.50;99.90;;;;;;4976752;28;20030;-71
2022/04/06 10:27:44;;;;;;;19.58;8.98;;;10.40;99.90;;;;;;4993451;28;20018;-71
2022/04/06 10:30:14;;;;;;;25.30;8.13;;;10.50;99.90;;;;;;4994286;28;20037;-71
2022/04/06 10:32:42;;;;;;;19.33;8.45;;;10.60;99.90;;;;;;4976537;28;20062;-71
2022/04/06 10:35:24;;;;;;;24.98;9.60;;;10.50;99.90;;;;;;4993392;28;20063;-71
2022/04/06 10:37:56;;;;;;;21.45;8.30;;;10.50;99.90;;;;;;4992962;28;20030;-72
2022/04/06 10:40:22;;;;;;;24.65;8.70;;;10.50;99.90;;;;;;4975957;28;20544;-71
2022/04/06 10:42:49;;;;;;;23.45;9.27;;;10.60;99.90;;;;;;4994277;28;20034;-72
2022/04/06 10:45:27;;;;;;;26.27;9.43;;;10.50;99.90;;;;;;4993452;28;20714;-72
2022/04/06 10:48:13;;;;;;;24.60;8.70;;;10.60;99.90;;;;;;4977194;28;20026;-71
2022/04/06 10:50:40;;;;;;;17.73;8.52;;;10.60;99.90;;;;;;4995241;28;20435;-71
2022/04/06 10:53:21;;;;;;;18.15;8.68;;;10.60;99.90;;;;;;4996042;28;20101;-71
2022/04/06 10:55:58;;;;;;;20.10;8.90;;;10.60;99.90;;;;;;4976152;28;20514;-71
2022/04/06 10:58:25;;;;;;;24.45;10.85;;;10.60;99.90;;;;;;4993790;28;20101;-70
2022/04/06 11:01:26;;;;;;;23.00;10.10;;;10.50;99.90;;;;;;4977566;28;20030;-73
2022/04/06 11:04:05;;;;;;;18.30;10.32;;;10.50;99.90;;;;;;4964130;28;20034;-71
2022/04/06 11:06:49;;;;;;;24.60;10.75;;;10.50;99.90;;;;;;4996573;28;20030;-70
2022/04/06 11:12:16;;;;;;;23.80;9.98;;;10.60;99.90;;;;;;5006003;28;20061;-72
2022/04/06 11:14:44;;;;;;;16.92;8.93;;;10.70;99.90;;;;;;5007244;28;20027;-70
2022/04/06 11:17:32;;;;;;;23.73;9.85;;;10.70;99.90;;;;;;5005384;28;20057;-70
2022/04/06 11:20:03;;;;;;;28.90;9.27;;;10.70;99.90;;;;;;5006518;28;20049;-72
2022/04/06 11:22:29;;;;;;;22.50;9.38;;;10.70;99.90;;;;;;5009240;28;20018;-70
2022/04/06 11:24:55;;;;;;;17.15;9.27;;;10.70;99.90;;;;;;5011726;28;20533;-71
2022/04/06 11:27:35;;;;;;;28.80;10.10;;;10.70;99.90;;;;;;4993247;28;20539;-72
2022/04/06 11:30:06;;;;;;;20.67;10.13;;;10.80;99.90;;;;;;4994359;28;20053;-71
2022/04/06 11:32:33;;;;;;;26.15;10.38;;;10.60;99.90;;;;;;4995309;28;20026;-71
2022/04/06 11:35:05;;;;;;;23.50;10.02;;;10.70;99.90;;;;;;4993747;28;20058;-71
2022/04/06 11:37:37;;;;;;;23.00;9.55;;;10.70;99.90;;;;;;4994383;28;20025;-72
2022/04/06 11:40:04;;;;;;;21.25;9.57;;;10.80;99.90;;;;;;4993801;28;20084;-73
2022/04/06 11:42:29;;;;;;;20.48;9.40;;;10.80;99.90;;;;;;4993315;28;20066;-71
2022/04/06 11:44:55;;;;;;;25.65;9.73;;;10.80;99.90;;;;;;4993159;28;20070;-71
2022/04/06 11:47:32;;;;;;;24.90;9.52;;;10.80;99.90;;;;;;4992229;28;20022;-70
2022/04/06 11:49:59;;;;;;;34.88;11.18;;;11.00;99.90;;;;;;4996071;28;20026;-72
2022/04/06 11:52:25;;;;;;;24.70;10.15;;;11.00;99.90;;;;;;4999664;28;20111;-71
2022/04/06 11:54:55;;;;;;;31.52;11.15;;;11.00;99.90;;;;;;4998987;28;20026;-71
2022/04/06 11:57:35;;;;;;;25.38;11.18;;;11.00;99.90;;;;;;4997489;28;20514;-71
2022/04/06 12:00:04;;;;;;;22.38;11.13;;;11.00;99.90;;;;;;4997935;28;20038;-71
2022/04/06 12:02:52;;;;;;;25.23;11.73;;;11.00;99.90;;;;;;4997630;28;20546;-70
2022/04/06 12:05:18;;;;;;;26.55;11.75;;;11.00;99.90;;;;;;4999191;28;20034;-70
2022/04/06 12:07:45;;;;;;;28.40;12.55;;;11.00;99.90;;;;;;4997273;28;20061;-70
2022/04/06 12:10:11;;;;;;;27.75;13.13;;;11.00;99.90;;;;;;4996843;28;20081;-73
2022/04/06 12:12:37;;;;;;;32.35;13.50;;;11.00;99.90;;;;;;4996313;28;20431;-70
2022/04/06 12:15:07;;;;;;;25.25;13.02;;;11.00;99.90;;;;;;4996208;28;20022;-71
2022/04/06 12:17:33;;;;;;;29.55;13.75;;;10.90;99.90;;;;;;4998546;28;20046;-72
2022/04/06 12:20:00;;;;;;;23.77;13.95;;;10.90;99.90;;;;;;4981577;28;20061;-69
2022/04/06 12:22:26;;;;;;;29.73;14.30;;;10.80;99.90;;;;;;4996322;28;20037;-70
2022/04/06 12:24:53;;;;;;;31.88;15.18;;;10.80;99.90;;;;;;4995867;28;20031;-70
2022/04/06 12:27:29;;;;;;;33.78;16.23;;;10.70;99.90;;;;;;4995425;28;20412;-72
2022/04/06 12:30:08;;;;;;;32.67;14.73;;;10.70;99.90;;;;;;4996768;28;20034;-70
2022/04/06 12:32:49;;;;;;;27.35;14.18;;;10.70;99.90;;;;;;4981826;28;20022;-70
2022/04/06 12:35:24;;;;;;;30.55;14.43;;;10.70;99.90;;;;;;4984103;28;20069;-71
2022/04/06 12:37:50;;;;;;;35.60;14.63;;;10.60;99.90;;;;;;4983122;28;20030;-72
2022/04/06 12:40:23;;;;;;;34.55;17.80;;;10.70;99.90;;;;;;4996965;28;20061;-71
2022/04/06 12:42:49;;;;;;;30.83;13.45;;;10.80;99.90;;;;;;5001500;28;20109;-72
2022/04/06 12:45:15;;;;;;;31.63;14.75;;;10.80;99.90;;;;;;5002308;28;20065;-71
2022/04/06 12:47:41;;;;;;;29.13;13.00;;;11.00;99.90;;;;;;4996231;28;20030;-76
2022/04/06 12:50:19;;;;;;;36.75;15.25;;;11.00;99.90;;;;;;4978821;28;20116;-74